sensor_id;sensor_type;location;lat;lon;timestamp;pressure;altitude;pressure_sealevel;temperature
69758;BMP280;57027;51.044;5.774;2022-08-11T00:01:27;101997.75;;;21.37
69758;BMP280;57027;51.044;5.774;2022-08-11T00:03:55;101983.88;;;21.14
69758;BMP280;57027;51.044;5.774;2022-08-11T00:06:28;101996.66;;;21.19
69758;BMP280;57027;51.044;5.774;2022-08-11T00:08:54;101960.09;;;21.01
69758;BMP280;57027;51.044;5.774;2022-08-11T00:11:21;101978.97;;;20.99
69758;BMP280;57027;51.044;5.774;2022-08-11T00:13:55;101998.22;;;21.28
69758;BMP280;57027;51.044;5.774;2022-08-11T00:16:22;101957.69;;;20.98
69758;BMP280;57027;51.044;5.774;2022-08-11T00:18:52;101995.53;;;21.15
69758;BMP280;57027;51.044;5.774;2022-08-11T00:21:20;101944.84;;;20.72
69758;BMP280;57027;51.044;5.774;2022-08-11T00:23:53;101943.16;;;20.69
69758;BMP280;57027;51.044;5.774;2022-08-11T00:26:20;101944.63;;;20.56
69758;BMP280;57027;51.044;5.774;2022-08-11T00:28:46;101994.06;;;20.87
69758;BMP280;57027;51.044;5.774;2022-08-11T00:31:22;101913.94;;;20.16
69758;BMP280;57027;51.044;5.774;2022-08-11T00:33:50;101984.31;;;20.78
69758;BMP280;57027;51.044;5.774;2022-08-11T00:36:17;101950.34;;;20.39
69758;BMP280;57027;51.044;5.774;2022-08-11T00:38:44;101906.66;;;19.92
69758;BMP280;57027;51.044;5.774;2022-08-11T00:41:30;101904.53;;;19.53
69758;BMP280;57027;51.044;5.774;2022-08-11T00:46:41;101998.09;;;19.76
69758;BMP280;57027;51.044;5.774;2022-08-11T00:49:26;101975.78;;;19.97
69758;BMP280;57027;51.044;5.774;2022-08-11T01:00:12;101985.13;;;20.47
69758;BMP280;57027;51.044;5.774;2022-08-11T01:03:11;101989.88;;;20.73
69758;BMP280;57027;51.044;5.774;2022-08-11T01:08:21;101970.38;;;20.42
69758;BMP280;57027;51.044;5.774;2022-08-11T01:45:48;101991.63;;;19.22
69758;BMP280;57027;51.044;5.774;2022-08-11T01:54:05;101991.88;;;19.81
69758;BMP280;57027;51.044;5.774;2022-08-11T01:57:29;101994.22;;;19.90
69758;BMP280;57027;51.044;5.774;2022-08-11T01:59:42;101975.19;;;19.90
69758;BMP280;57027;51.044;5.774;2022-08-11T02:11:29;101996.94;;;19.71
69758;BMP280;57027;51.044;5.774;2022-08-11T02:14:06;101999.44;;;19.88
69758;BMP280;57027;51.044;5.774;2022-08-11T02:19:47;101988.38;;;19.48
69758;BMP280;57027;51.044;5.774;2022-08-11T02:22:58;102000.31;;;19.40
69758;BMP280;57027;51.044;5.774;2022-08-11T02:28:29;101991.94;;;19.38
69758;BMP280;57027;51.044;5.774;2022-08-11T02:31:07;101992.69;;;19.38
69758;BMP280;57027;51.044;5.774;2022-08-11T02:34:06;101977.41;;;19.35
69758;BMP280;57027;51.044;5.774;2022-08-11T02:36:51;101943.06;;;18.94
69758;BMP280;57027;51.044;5.774;2022-08-11T02:39:19;101948.72;;;19.15
69758;BMP280;57027;51.044;5.774;2022-08-11T02:48:39;101937.41;;;18.92
69758;BMP280;57027;51.044;5.774;2022-08-11T02:54:38;101981.41;;;19.10
69758;BMP280;57027;51.044;5.774;2022-08-11T02:57:18;101960.53;;;18.99
69758;BMP280;57027;51.044;5.774;2022-08-11T03:00:05;101985.34;;;19.14
69758;BMP280;57027;51.044;5.774;2022-08-11T03:05:51;101985.66;;;19.05
69758;BMP280;57027;51.044;5.774;2022-08-11T03:11:11;101985.44;;;19.03
69758;BMP280;57027;51.044;5.774;2022-08-11T03:14:06;101981.31;;;18.96
69758;BMP280;57027;51.044;5.774;2022-08-11T03:20:21;101939.28;;;18.54
69758;BMP280;57027;51.044;5.774;2022-08-11T03:22:51;101985.66;;;18.80
69758;BMP280;57027;51.044;5.774;2022-08-11T03:28:35;101989.00;;;18.68
69758;BMP280;57027;51.044;5.774;2022-08-11T03:31:17;101945.03;;;18.45
69758;BMP280;57027;51.044;5.774;2022-08-11T03:33:50;101924.28;;;18.17
69758;BMP280;57027;51.044;5.774;2022-08-11T03:36:51;101985.59;;;18.62
69758;BMP280;57027;51.044;5.774;2022-08-11T03:45:13;101976.28;;;18.57
69758;BMP280;57027;51.044;5.774;2022-08-11T04:04:57;101953.84;;;18.51
69758;BMP280;57027;51.044;5.774;2022-08-11T04:11:07;101982.16;;;18.61
69758;BMP280;57027;51.044;5.774;2022-08-11T04:13:59;101982.94;;;18.56
69758;BMP280;57027;51.044;5.774;2022-08-11T04:20:17;101971.81;;;18.29
69758;BMP280;57027;51.044;5.774;2022-08-11T04:28:53;101987.72;;;18.44
69758;BMP280;57027;51.044;5.774;2022-08-11T04:31:52;101939.38;;;18.12
69758;BMP280;57027;51.044;5.774;2022-08-11T05:04:45;101899.53;;;18.02
69758;BMP280;57027;51.044;5.774;2022-08-11T05:17:13;101993.78;;;18.56
69758;BMP280;57027;51.044;5.774;2022-08-11T05:20:13;101937.47;;;18.62
69758;BMP280;57027;51.044;5.774;2022-08-11T05:23:04;101960.00;;;18.57
69758;BMP280;57027;51.044;5.774;2022-08-11T05:25:51;101927.41;;;18.81
69758;BMP280;57027;51.044;5.774;2022-08-11T05:28:41;101996.13;;;19.39
69758;BMP280;57027;51.044;5.774;2022-08-11T05:31:42;101932.78;;;18.63
69758;BMP280;57027;51.044;5.774;2022-08-11T05:35:03;101897.50;;;18.08
69758;BMP280;57027;51.044;5.774;2022-08-11T05:37:58;101918.78;;;17.92
69758;BMP280;57027;51.044;5.774;2022-08-11T05:41:12;101967.47;;;18.45
69758;BMP280;57027;51.044;5.774;2022-08-11T05:44:40;101925.09;;;18.12
69758;BMP280;57027;51.044;5.774;2022-08-11T05:47:33;101969.22;;;18.43
69758;BMP280;57027;51.044;5.774;2022-08-11T05:50:21;102001.94;;;19.30
69758;BMP280;57027;51.044;5.774;2022-08-11T05:53:30;101955.00;;;18.86
69758;BMP280;57027;51.044;5.774;2022-08-11T06:15:06;101934.56;;;19.41
69758;BMP280;57027;51.044;5.774;2022-08-11T06:46:51;101990.53;;;21.26
69758;BMP280;57027;51.044;5.774;2022-08-11T06:49:20;101983.50;;;21.44
69758;BMP280;57027;51.044;5.774;2022-08-11T06:52:10;101989.59;;;21.71
69758;BMP280;57027;51.044;5.774;2022-08-11T06:54:40;102003.94;;;21.38
69758;BMP280;57027;51.044;5.774;2022-08-11T06:57:11;101979.53;;;21.87
69758;BMP280;57027;51.044;5.774;2022-08-11T06:59:58;102000.56;;;22.00
69758;BMP280;57027;51.044;5.774;2022-08-11T07:02:50;101981.06;;;21.75
69758;BMP280;57027;51.044;5.774;2022-08-11T07:05:30;101999.63;;;
69758;BMP280;57027;51.044;5.774;2022-08-11T07:13:59;101960.19;;;22.27
69758;BMP280;57027;51.044;5.774;2022-08-11T07:16:46;102003.75;;;22.69
69758;BMP280;57027;51.044;5.774;2022-08-11T07:19:14;101957.03;;;22.52
69758;BMP280;57027;51.044;5.774;2022-08-11T07:22:02;102002.25;;;23.04
69758;BMP280;57027;51.044;5.774;2022-08-11T07:25:12;101985.13;;;23.04
69758;BMP280;57027;51.044;5.774;2022-08-11T07:28:01;101985.88;;;23.12
69758;BMP280;57027;51.044;5.774;2022-08-11T07:30:47;102001.47;;;23.40
69758;BMP280;57027;51.044;5.774;2022-08-11T07:33:21;102005.47;;;23.47
69758;BMP280;57027;51.044;5.774;2022-08-11T07:35:52;101978.84;;;23.39
69758;BMP280;57027;51.044;5.774;2022-08-11T07:38:41;101969.38;;;23.71
69758;BMP280;57027;51.044;5.774;2022-08-11T07:41:09;101967.16;;;23.31
69758;BMP280;57027;51.044;5.774;2022-08-11T07:43:36;102006.59;;;23.90
69758;BMP280;57027;51.044;5.774;2022-08-11T07:46:03;102005.84;;;24.27
69758;BMP280;57027;51.044;5.774;2022-08-11T07:48:48;101995.78;;;24.30
69758;BMP280;57027;51.044;5.774;2022-08-11T07:51:33;101996.66;;;24.48
69758;BMP280;57027;51.044;5.774;2022-08-11T07:54:17;101975.09;;;24.52
69758;BMP280;57027;51.044;5.774;2022-08-11T07:56:43;102005.81;;;24.83
69758;BMP280;57027;51.044;5.774;2022-08-11T07:59:10;101952.72;;;24.63
69758;BMP280;57027;51.044;5.774;2022-08-11T08:01:54;101996.28;;;25.24
69758;BMP280;57027;51.044;5.774;2022-08-11T08:04:40;102000.44;;;25.33
69758;BMP280;57027;51.044;5.774;2022-08-11T08:07:25;102006.47;;;25.32
69758;BMP280;57027;51.044;5.774;2022-08-11T08:10:09;101959.53;;;25.20
69758;BMP280;57027;51.044;5.774;2022-08-11T08:12:54;101999.44;;;25.63
69758;BMP280;57027;51.044;5.774;2022-08-11T08:15:40;101982.31;;;25.97
69758;BMP280;57027;51.044;5.774;2022-08-11T08:18:24;101961.06;;;25.81
69758;BMP280;57027;51.044;5.774;2022-08-11T08:20:50;101985.94;;;26.00
69758;BMP280;57027;51.044;5.774;2022-08-11T08:23:21;101993.97;;;26.23
69758;BMP280;57027;51.044;5.774;2022-08-11T08:26:00;101991.09;;;26.13
69758;BMP280;57027;51.044;5.774;2022-08-11T08:28:27;101997.25;;;26.39
69758;BMP280;57027;51.044;5.774;2022-08-11T08:30:53;101991.28;;;26.15
69758;BMP280;57027;51.044;5.774;2022-08-11T08:33:23;101988.75;;;26.27
69758;BMP280;57027;51.044;5.774;2022-08-11T08:36:03;101988.25;;;26.56
69758;BMP280;57027;51.044;5.774;2022-08-11T08:38:43;102004.50;;;26.88
69758;BMP280;57027;51.044;5.774;2022-08-11T08:41:11;101982.34;;;26.96
69758;BMP280;57027;51.044;5.774;2022-08-11T08:43:38;101953.84;;;26.91
69758;BMP280;57027;51.044;5.774;2022-08-11T08:46:08;101990.38;;;26.75
69758;BMP280;57027;51.044;5.774;2022-08-11T08:48:34;102000.19;;;26.95
69758;BMP280;57027;51.044;5.774;2022-08-11T08:51:02;101954.22;;;27.15
69758;BMP280;57027;51.044;5.774;2022-08-11T08:53:51;101999.66;;;27.43
69758;BMP280;57027;51.044;5.774;2022-08-11T08:56:19;101988.22;;;27.56
69758;BMP280;57027;51.044;5.774;2022-08-11T08:58:49;101946.31;;;27.48
69758;BMP280;57027;51.044;5.774;2022-08-11T09:01:15;101984.34;;;27.69
69758;BMP280;57027;51.044;5.774;2022-08-11T09:03:43;101972.72;;;27.90
69758;BMP280;57027;51.044;5.774;2022-08-11T09:06:09;101990.97;;;28.05
69758;BMP280;57027;51.044;5.774;2022-08-11T09:08:35;101994.56;;;28.36
69758;BMP280;57027;51.044;5.774;2022-08-11T09:11:03;101970.38;;;27.96
69758;BMP280;57027;51.044;5.774;2022-08-11T09:13:48;101993.56;;;28.32
69758;BMP280;57027;51.044;5.774;2022-08-11T09:16:14;101980.94;;;28.38
69758;BMP280;57027;51.044;5.774;2022-08-11T09:18:41;101977.88;;;28.44
69758;BMP280;57027;51.044;5.774;2022-08-11T09:21:11;101969.06;;;28.26
69758;BMP280;57027;51.044;5.774;2022-08-11T09:23:39;101982.16;;;28.66
69758;BMP280;57027;51.044;5.774;2022-08-11T09:26:24;101988.63;;;28.40
69758;BMP280;57027;51.044;5.774;2022-08-11T09:29:09;101997.34;;;28.77
69758;BMP280;57027;51.044;5.774;2022-08-11T09:31:36;101976.94;;;28.71
69758;BMP280;57027;51.044;5.774;2022-08-11T09:34:01;101969.31;;;28.40
69758;BMP280;57027;51.044;5.774;2022-08-11T09:36:27;101962.59;;;28.62
69758;BMP280;57027;51.044;5.774;2022-08-11T09:39:12;101995.66;;;29.03
69758;BMP280;57027;51.044;5.774;2022-08-11T09:42:00;101981.47;;;28.56
69758;BMP280;57027;51.044;5.774;2022-08-11T09:44:26;102000.44;;;28.72
69758;BMP280;57027;51.044;5.774;2022-08-11T09:47:11;101973.09;;;29.38
69758;BMP280;57027;51.044;5.774;2022-08-11T09:49:42;101948.09;;;28.93
69758;BMP280;57027;51.044;5.774;2022-08-11T09:52:09;101983.84;;;29.77
69758;BMP280;57027;51.044;5.774;2022-08-11T09:54:35;101975.75;;;29.48
69758;BMP280;57027;51.044;5.774;2022-08-11T09:57:01;101980.75;;;29.61
69758;BMP280;57027;51.044;5.774;2022-08-11T09:59:46;101985.94;;;29.88
69758;BMP280;57027;51.044;5.774;2022-08-11T10:02:12;101974.88;;;29.66
69758;BMP280;57027;51.044;5.774;2022-08-11T10:04:42;101959.38;;;29.61
69758;BMP280;57027;51.044;5.774;2022-08-11T10:07:12;101975.03;;;30.02
69758;BMP280;57027;51.044;5.774;2022-08-11T10:09:53;101975.81;;;30.26
69758;BMP280;57027;51.044;5.774;2022-08-11T10:12:24;101976.84;;;30.09
69758;BMP280;57027;51.044;5.774;2022-08-11T10:14:56;101970.72;;;30.10
69758;BMP280;57027;51.044;5.774;2022-08-11T10:17:45;101957.94;;;29.94
69758;BMP280;57027;51.044;5.774;2022-08-11T10:20:34;101955.13;;;30.50
69758;BMP280;57027;51.044;5.774;2022-08-11T10:23:02;101958.25;;;30.33
69758;BMP280;57027;51.044;5.774;2022-08-11T10:25:47;101923.00;;;30.45
69758;BMP280;57027;51.044;5.774;2022-08-11T10:28:33;101951.28;;;30.32
69758;BMP280;57027;51.044;5.774;2022-08-11T10:30:59;101946.94;;;30.76
69758;BMP280;57027;51.044;5.774;2022-08-11T10:33:45;101938.03;;;30.65
69758;BMP280;57027;51.044;5.774;2022-08-11T10:36:27;101910.38;;;30.42
69758;BMP280;57027;51.044;5.774;2022-08-11T10:38:55;101939.34;;;30.64
69758;BMP280;57027;51.044;5.774;2022-08-11T10:41:21;101893.56;;;30.38
69758;BMP280;57027;51.044;5.774;2022-08-11T10:44:06;101934.75;;;30.92
69758;BMP280;57027;51.044;5.774;2022-08-11T10:46:33;101934.00;;;31.04
69758;BMP280;57027;51.044;5.774;2022-08-11T10:49:21;101910.97;;;30.76
69758;BMP280;57027;51.044;5.774;2022-08-11T10:51:47;101916.56;;;31.27
69758;BMP280;57027;51.044;5.774;2022-08-11T10:54:32;101918.94;;;31.07
69758;BMP280;57027;51.044;5.774;2022-08-11T10:57:17;101934.72;;;31.41
69758;BMP280;57027;51.044;5.774;2022-08-11T11:00:03;101930.22;;;31.23
69758;BMP280;57027;51.044;5.774;2022-08-11T11:02:30;101932.94;;;31.34
69758;BMP280;57027;51.044;5.774;2022-08-11T11:05:11;101908.88;;;31.25
69758;BMP280;57027;51.044;5.774;2022-08-11T11:07:59;101917.34;;;31.41
69758;BMP280;57027;51.044;5.774;2022-08-11T11:10:24;101920.69;;;31.51
69758;BMP280;57027;51.044;5.774;2022-08-11T11:12:54;101918.13;;;31.30
69758;BMP280;57027;51.044;5.774;2022-08-11T11:15:40;101927.47;;;31.48
69758;BMP280;57027;51.044;5.774;2022-08-11T11:18:32;101926.53;;;31.57
69758;BMP280;57027;51.044;5.774;2022-08-11T11:21:14;101917.88;;;31.77
69758;BMP280;57027;51.044;5.774;2022-08-11T11:23:52;101918.34;;;31.59
69758;BMP280;57027;51.044;5.774;2022-08-11T11:32:17;101919.47;;;31.93
69758;BMP280;57027;51.044;5.774;2022-08-11T11:35:00;101916.88;;;31.84
69758;BMP280;57027;51.044;5.774;2022-08-11T11:37:29;101903.53;;;31.55
69758;BMP280;57027;51.044;5.774;2022-08-11T11:39:57;101927.31;;;31.72
69758;BMP280;57027;51.044;5.774;2022-08-11T11:42:23;101922.56;;;31.60
69758;BMP280;57027;51.044;5.774;2022-08-11T11:44:49;101904.84;;;31.40
69758;BMP280;57027;51.044;5.774;2022-08-11T11:47:15;101899.28;;;31.65
69758;BMP280;57027;51.044;5.774;2022-08-11T11:49:44;101912.91;;;31.61
69758;BMP280;57027;51.044;5.774;2022-08-11T11:52:14;101903.13;;;32.00
69758;BMP280;57027;51.044;5.774;2022-08-11T11:54:42;101905.03;;;31.69
69758;BMP280;57027;51.044;5.774;2022-08-11T11:57:08;101880.81;;;31.31
69758;BMP280;57027;51.044;5.774;2022-08-11T11:59:53;101892.84;;;31.88
69758;BMP280;57027;51.044;5.774;2022-08-11T12:02:39;101870.44;;;31.57
69758;BMP280;57027;51.044;5.774;2022-08-11T12:05:06;101855.03;;;31.54
69758;BMP280;57027;51.044;5.774;2022-08-11T12:07:35;101891.03;;;32.20
69758;BMP280;57027;51.044;5.774;2022-08-11T12:10:20;101889.25;;;31.86
69758;BMP280;57027;51.044;5.774;2022-08-11T12:12:46;101892.44;;;31.94
69758;BMP280;57027;51.044;5.774;2022-08-11T12:15:30;101882.72;;;32.20
69758;BMP280;57027;51.044;5.774;2022-08-11T12:17:57;101856.66;;;31.98
69758;BMP280;57027;51.044;5.774;2022-08-11T12:20:23;101867.50;;;31.94
69758;BMP280;57027;51.044;5.774;2022-08-11T12:22:49;101852.31;;;31.42
69758;BMP280;57027;51.044;5.774;2022-08-11T12:25:38;101794.97;;;31.31
69758;BMP280;57027;51.044;5.774;2022-08-11T12:28:22;101862.47;;;32.04
69758;BMP280;57027;51.044;5.774;2022-08-11T12:30:50;101874.19;;;32.16
69758;BMP280;57027;51.044;5.774;2022-08-11T12:33:18;101857.34;;;32.12
69758;BMP280;57027;51.044;5.774;2022-08-11T12:35:45;101785.69;;;31.79
69758;BMP280;57027;51.044;5.774;2022-08-11T12:38:11;101819.13;;;32.25
69758;BMP280;57027;51.044;5.774;2022-08-11T12:40:38;101783.25;;;32.58
69758;BMP280;57027;51.044;5.774;2022-08-11T12:43:27;101826.69;;;32.81
69758;BMP280;57027;51.044;5.774;2022-08-11T12:46:18;101853.88;;;32.69
69758;BMP280;57027;51.044;5.774;2022-08-11T12:48:47;101839.88;;;32.81
69758;BMP280;57027;51.044;5.774;2022-08-11T12:51:36;101844.97;;;33.47
69758;BMP280;57027;51.044;5.774;2022-08-11T12:57:18;101843.78;;;33.68
69758;BMP280;57027;51.044;5.774;2022-08-11T13:00:05;101847.19;;;33.19
69758;BMP280;57027;51.044;5.774;2022-08-11T13:02:50;101814.91;;;33.75
69758;BMP280;57027;51.044;5.774;2022-08-11T13:05:35;101838.53;;;33.43
69758;BMP280;57027;51.044;5.774;2022-08-11T13:08:02;101796.72;;;33.41
69758;BMP280;57027;51.044;5.774;2022-08-11T13:10:30;101755.97;;;34.68
69758;BMP280;57027;51.044;5.774;2022-08-11T13:13:16;101806.44;;;35.56
69758;BMP280;57027;51.044;5.774;2022-08-11T13:15:44;101811.59;;;35.04
69758;BMP280;57027;51.044;5.774;2022-08-11T13:18:14;101788.41;;;34.99
69758;BMP280;57027;51.044;5.774;2022-08-11T13:20:40;101784.41;;;33.78
69758;BMP280;57027;51.044;5.774;2022-08-11T13:23:08;101803.53;;;34.21
69758;BMP280;57027;51.044;5.774;2022-08-11T13:25:37;101782.66;;;34.56
69758;BMP280;57027;51.044;5.774;2022-08-11T13:28:04;101764.69;;;34.96
69758;BMP280;57027;51.044;5.774;2022-08-11T13:30:30;101778.91;;;34.87
69758;BMP280;57027;51.044;5.774;2022-08-11T13:33:16;101794.91;;;36.31
69758;BMP280;57027;51.044;5.774;2022-08-11T13:35:44;101791.56;;;35.49
69758;BMP280;57027;51.044;5.774;2022-08-11T13:38:10;101800.16;;;34.96
69758;BMP280;57027;51.044;5.774;2022-08-11T13:40:38;101787.34;;;34.69
69758;BMP280;57027;51.044;5.774;2022-08-11T13:43:04;101765.28;;;34.95
69758;BMP280;57027;51.044;5.774;2022-08-11T13:45:30;101787.22;;;35.86
69758;BMP280;57027;51.044;5.774;2022-08-11T13:47:58;101721.97;;;35.31
69758;BMP280;57027;51.044;5.774;2022-08-11T13:50:26;101716.84;;;35.44
69758;BMP280;57027;51.044;5.774;2022-08-11T13:53:14;101733.06;;;35.10
69758;BMP280;57027;51.044;5.774;2022-08-11T13:55:41;101784.84;;;35.56
69758;BMP280;57027;51.044;5.774;2022-08-11T13:58:09;101775.97;;;36.28
69758;BMP280;57027;51.044;5.774;2022-08-11T14:00:35;101752.00;;;35.13
69758;BMP280;57027;51.044;5.774;2022-08-11T14:03:04;101745.19;;;34.96
69758;BMP280;57027;51.044;5.774;2022-08-11T14:05:37;101767.44;;;36.00
69758;BMP280;57027;51.044;5.774;2022-08-11T14:08:08;101758.53;;;35.00
69758;BMP280;57027;51.044;5.774;2022-08-11T14:10:36;101727.84;;;34.60
69758;BMP280;57027;51.044;5.774;2022-08-11T14:13:09;101742.28;;;35.34
69758;BMP280;57027;51.044;5.774;2022-08-11T14:16:00;101758.69;;;35.66
69758;BMP280;57027;51.044;5.774;2022-08-11T14:18:31;101763.94;;;33.87
69758;BMP280;57027;51.044;5.774;2022-08-11T14:20:59;101751.84;;;33.46
69758;BMP280;57027;51.044;5.774;2022-08-11T14:23:47;101770.47;;;33.12
69758;BMP280;57027;51.044;5.774;2022-08-11T14:26:16;101724.91;;;32.56
69758;BMP280;57027;51.044;5.774;2022-08-11T14:28:48;101763.00;;;32.69
69758;BMP280;57027;51.044;5.774;2022-08-11T14:31:15;101731.03;;;32.09
69758;BMP280;57027;51.044;5.774;2022-08-11T14:33:41;101692.53;;;32.02
69758;BMP280;57027;51.044;5.774;2022-08-11T14:36:09;101695.72;;;31.96
69758;BMP280;57027;51.044;5.774;2022-08-11T14:38:35;101725.66;;;32.13
69758;BMP280;57027;51.044;5.774;2022-08-11T14:41:03;101740.38;;;32.45
69758;BMP280;57027;51.044;5.774;2022-08-11T14:43:47;101754.44;;;32.50
69758;BMP280;57027;51.044;5.774;2022-08-11T14:46:35;101725.13;;;32.31
69758;BMP280;57027;51.044;5.774;2022-08-11T14:49:20;101754.44;;;32.06
69758;BMP280;57027;51.044;5.774;2022-08-11T14:51:47;101732.56;;;32.12
69758;BMP280;57027;51.044;5.774;2022-08-11T14:54:14;101747.47;;;32.05
69758;BMP280;57027;51.044;5.774;2022-08-11T14:56:58;101699.78;;;31.65
69758;BMP280;57027;51.044;5.774;2022-08-11T14:59:28;101694.50;;;31.16
69758;BMP280;57027;51.044;5.774;2022-08-11T15:01:53;101665.50;;;31.45
69758;BMP280;57027;51.044;5.774;2022-08-11T15:04:43;101694.09;;;31.91
69758;BMP280;57027;51.044;5.774;2022-08-11T15:07:16;101644.16;;;31.20
69758;BMP280;57027;51.044;5.774;2022-08-11T15:09:43;101683.78;;;31.64
69758;BMP280;57027;51.044;5.774;2022-08-11T15:12:10;101641.16;;;31.02
69758;BMP280;57027;51.044;5.774;2022-08-11T15:14:46;101686.75;;;31.54
69758;BMP280;57027;51.044;5.774;2022-08-11T15:17:34;101645.19;;;31.40
69758;BMP280;57027;51.044;5.774;2022-08-11T15:20:05;101640.25;;;31.39
69758;BMP280;57027;51.044;5.774;2022-08-11T15:22:50;101689.53;;;31.54
69758;BMP280;57027;51.044;5.774;2022-08-11T15:25:34;101675.78;;;32.00
69758;BMP280;57027;51.044;5.774;2022-08-11T15:28:02;101681.63;;;31.76
69758;BMP280;57027;51.044;5.774;2022-08-11T15:30:52;101679.47;;;32.04
69758;BMP280;57027;51.044;5.774;2022-08-11T15:33:39;101694.31;;;31.95
69758;BMP280;57027;51.044;5.774;2022-08-11T15:36:24;101701.81;;;31.51
69758;BMP280;57027;51.044;5.774;2022-08-11T15:39:19;101689.22;;;31.76
69758;BMP280;57027;51.044;5.774;2022-08-11T15:41:51;101689.81;;;31.60
69758;BMP280;57027;51.044;5.774;2022-08-11T15:44:40;101693.13;;;31.71
69758;BMP280;57027;51.044;5.774;2022-08-11T15:47:27;101679.63;;;31.79
69758;BMP280;57027;51.044;5.774;2022-08-11T15:49:54;101685.09;;;31.49
69758;BMP280;57027;51.044;5.774;2022-08-11T15:52:24;101655.97;;;31.34
69758;BMP280;57027;51.044;5.774;2022-08-11T15:54:52;101691.66;;;31.42
69758;BMP280;57027;51.044;5.774;2022-08-11T15:57:19;101667.94;;;31.11
69758;BMP280;57027;51.044;5.774;2022-08-11T16:00:05;101641.25;;;31.04
69758;BMP280;57027;51.044;5.774;2022-08-11T16:02:51;101645.41;;;31.17
69758;BMP280;57027;51.044;5.774;2022-08-11T16:05:20;101655.97;;;31.21
69758;BMP280;57027;51.044;5.774;2022-08-11T16:07:50;101654.94;;;31.28
69758;BMP280;57027;51.044;5.774;2022-08-11T16:10:19;101627.66;;;30.95
69758;BMP280;57027;51.044;5.774;2022-08-11T16:15:38;101585.22;;;30.64
69758;BMP280;57027;51.044;5.774;2022-08-11T16:18:27;101641.25;;;31.04
69758;BMP280;57027;51.044;5.774;2022-08-11T16:21:07;101629.47;;;30.90
69758;BMP280;57027;51.044;5.774;2022-08-11T16:23:38;101641.16;;;31.02
69758;BMP280;57027;51.044;5.774;2022-08-11T16:26:05;101624.84;;;30.81
69758;BMP280;57027;51.044;5.774;2022-08-11T16:28:33;101659.94;;;31.04
69758;BMP280;57027;51.044;5.774;2022-08-11T16:31:00;101620.50;;;30.64
69758;BMP280;57027;51.044;5.774;2022-08-11T16:33:29;101600.53;;;30.65
69758;BMP280;57027;51.044;5.774;2022-08-11T16:35:56;101620.25;;;30.60
69758;BMP280;57027;51.044;5.774;2022-08-11T16:38:44;101643.75;;;30.98
69758;BMP280;57027;51.044;5.774;2022-08-11T16:41:16;101620.78;;;30.70
69758;BMP280;57027;51.044;5.774;2022-08-11T16:44:03;101577.31;;;30.45
69758;BMP280;57027;51.044;5.774;2022-08-11T16:46:51;101616.88;;;30.61
69758;BMP280;57027;51.044;5.774;2022-08-11T16:49:41;101656.59;;;30.80
69758;BMP280;57027;51.044;5.774;2022-08-11T16:52:12;101609.19;;;30.60
69758;BMP280;57027;51.044;5.774;2022-08-11T16:54:41;101635.00;;;30.90
69758;BMP280;57027;51.044;5.774;2022-08-11T16:57:27;101569.72;;;30.46
69758;BMP280;57027;51.044;5.774;2022-08-11T17:00:13;101648.63;;;31.00
69758;BMP280;57027;51.044;5.774;2022-08-11T17:02:56;101572.84;;;30.26
69758;BMP280;57027;51.044;5.774;2022-08-11T17:05:52;101565.59;;;30.33
69758;BMP280;57027;51.044;5.774;2022-08-11T17:08:54;101579.19;;;30.29
69758;BMP280;57027;51.044;5.774;2022-08-11T17:11:52;101651.22;;;30.70
69758;BMP280;57027;51.044;5.774;2022-08-11T17:14:59;101581.31;;;30.05
69758;BMP280;57027;51.044;5.774;2022-08-11T17:17:40;101563.53;;;30.08
69758;BMP280;57027;51.044;5.774;2022-08-11T17:20:12;101626.69;;;30.51
69758;BMP280;57027;51.044;5.774;2022-08-11T17:22:57;101558.09;;;29.84
69758;BMP280;57027;51.044;5.774;2022-08-11T17:28:39;101638.91;;;30.34
69758;BMP280;57027;51.044;5.774;2022-08-11T17:31:07;101638.09;;;30.31
69758;BMP280;57027;51.044;5.774;2022-08-11T17:33:54;101640.59;;;30.27
69758;BMP280;57027;51.044;5.774;2022-08-11T17:36:39;101635.81;;;30.28
69758;BMP280;57027;51.044;5.774;2022-08-11T17:39:09;101638.34;;;30.24
69758;BMP280;57027;51.044;5.774;2022-08-11T17:41:37;101633.81;;;30.16
69758;BMP280;57027;51.044;5.774;2022-08-11T17:44:22;101640.66;;;30.15
69758;BMP280;57027;51.044;5.774;2022-08-11T17:47:08;101621.75;;;29.98
69758;BMP280;57027;51.044;5.774;2022-08-11T17:49:53;101637.44;;;30.07
69758;BMP280;57027;51.044;5.774;2022-08-11T17:52:19;101631.72;;;30.03
69758;BMP280;57027;51.044;5.774;2022-08-11T17:55:03;101636.09;;;29.83
69758;BMP280;57027;51.044;5.774;2022-08-11T17:57:49;101638.34;;;29.75
69758;BMP280;57027;51.044;5.774;2022-08-11T18:00:34;101635.22;;;29.80
69758;BMP280;57027;51.044;5.774;2022-08-11T18:03:00;101624.94;;;29.57
69758;BMP280;57027;51.044;5.774;2022-08-11T18:05:45;101636.69;;;29.70
69758;BMP280;57027;51.044;5.774;2022-08-11T18:08:13;101631.31;;;29.48
69758;BMP280;57027;51.044;5.774;2022-08-11T18:11:00;101635.75;;;29.41
69758;BMP280;57027;51.044;5.774;2022-08-11T18:13:45;101637.06;;;29.40
69758;BMP280;57027;51.044;5.774;2022-08-11T18:16:31;101634.06;;;29.25
69758;BMP280;57027;51.044;5.774;2022-08-11T18:19:15;101644.72;;;29.30
69758;BMP280;57027;51.044;5.774;2022-08-11T18:22:12;101638.50;;;29.30
69758;BMP280;57027;51.044;5.774;2022-08-11T18:25:06;101642.69;;;29.19
69758;BMP280;57027;51.044;5.774;2022-08-11T18:27:53;101637.91;;;29.20
69758;BMP280;57027;51.044;5.774;2022-08-11T18:30:37;101643.41;;;29.08
69758;BMP280;57027;51.044;5.774;2022-08-11T18:33:26;101643.38;;;28.96
69758;BMP280;57027;51.044;5.774;2022-08-11T18:36:16;101637.84;;;28.84
69758;BMP280;57027;51.044;5.774;2022-08-11T18:39:05;101647.13;;;28.67
69758;BMP280;57027;51.044;5.774;2022-08-11T18:41:51;101641.38;;;28.42
69758;BMP280;57027;51.044;5.774;2022-08-11T18:44:36;101654.16;;;28.26
69758;BMP280;57027;51.044;5.774;2022-08-11T18:47:21;101654.16;;;28.26
69758;BMP280;57027;51.044;5.774;2022-08-11T18:50:08;101660.16;;;28.12
69758;BMP280;57027;51.044;5.774;2022-08-11T18:52:54;101664.66;;;28.08